sensor_id;sensor_type;location;lat;lon;timestamp;P1;durP1;ratioP1;P2;durP2;ratioP2
79229;SDS011;68663;49.122;17.544;2023-08-08T00:00:01;1.30;;;1.00;;
79229;SDS011;68663;49.122;17.544;2023-08-08T00:02:28;1.27;;;0.90;;
79229;SDS011;68663;49.122;17.544;2023-08-08T00:04:54;1.77;;;1.20;;
79229;SDS011;68663;49.122;17.544;2023-08-08T00:07:19;1.33;;;1.10;;
79229;SDS011;68663;49.122;17.544;2023-08-08T00:09:44;1.20;;;1.10;;
79229;SDS011;68663;49.122;17.544;2023-08-08T00:12:10;1.25;;;0.90;;
79229;SDS011;68663;49.122;17.544;2023-08-08T00:14:36;1.38;;;0.93;;
79229;SDS011;68663;49.122;17.544;2023-08-08T00:17:01;1.25;;;0.90;;
79229;SDS011;68663;49.122;17.544;2023-08-08T00:19:27;1.38;;;1.10;;
79229;SDS011;68663;49.122;17.544;2023-08-08T00:21:52;0.95;;;0.95;;
79229;SDS011;68663;49.122;17.544;2023-08-08T00:24:18;1.08;;;0.80;;
79229;SDS011;68663;49.122;17.544;2023-08-08T00:26:43;2.33;;;1.40;;
79229;SDS011;68663;49.122;17.544;2023-08-08T00:29:09;2.33;;;1.15;;
79229;SDS011;68663;49.122;17.544;2023-08-08T00:31:34;1.23;;;1.10;;
79229;SDS011;68663;49.122;17.544;2023-08-08T00:34:00;1.30;;;1.20;;
79229;SDS011;68663;49.122;17.544;2023-08-08T00:36:25;1.85;;;1.15;;
79229;SDS011;68663;49.122;17.544;2023-08-08T00:38:50;1.42;;;1.15;;
79229;SDS011;68663;49.122;17.544;2023-08-08T00:41:16;2.35;;;1.10;;
79229;SDS011;68663;49.122;17.544;2023-08-08T00:43:41;1.17;;;1.07;;
79229;SDS011;68663;49.122;17.544;2023-08-08T00:46:08;1.40;;;1.10;;
79229;SDS011;68663;49.122;17.544;2023-08-08T00:48:34;0.88;;;0.77;;
79229;SDS011;68663;49.122;17.544;2023-08-08T00:50:59;1.63;;;1.10;;
79229;SDS011;68663;49.122;17.544;2023-08-08T00:53:25;1.20;;;1.10;;
79229;SDS011;68663;49.122;17.544;2023-08-08T00:55:53;1.13;;;0.82;;
79229;SDS011;68663;49.122;17.544;2023-08-08T00:58:19;1.17;;;1.00;;
79229;SDS011;68663;49.122;17.544;2023-08-08T01:00:44;0.95;;;0.95;;
79229;SDS011;68663;49.122;17.544;2023-08-08T01:03:10;0.95;;;0.85;;
79229;SDS011;68663;49.122;17.544;2023-08-08T01:05:38;1.05;;;1.00;;
79229;SDS011;68663;49.122;17.544;2023-08-08T01:08:08;2.17;;;1.10;;
79229;SDS011;68663;49.122;17.544;2023-08-08T01:10:34;1.35;;;0.90;;
79229;SDS011;68663;49.122;17.544;2023-08-08T01:13:07;1.13;;;1.02;;
79229;SDS011;68663;49.122;17.544;2023-08-08T01:15:35;1.42;;;1.20;;
79229;SDS011;68663;49.122;17.544;2023-08-08T01:18:05;1.85;;;1.02;;
79229;SDS011;68663;49.122;17.544;2023-08-08T01:20:32;1.35;;;1.02;;
79229;SDS011;68663;49.122;17.544;2023-08-08T01:25:39;1.38;;;1.02;;
79229;SDS011;68663;49.122;17.544;2023-08-08T01:28:06;1.45;;;0.90;;
79229;SDS011;68663;49.122;17.544;2023-08-08T01:30:33;2.08;;;1.10;;
79229;SDS011;68663;49.122;17.544;2023-08-08T01:32:58;1.58;;;1.08;;
79229;SDS011;68663;49.122;17.544;2023-08-08T01:35:25;1.80;;;1.10;;
79229;SDS011;68663;49.122;17.544;2023-08-08T01:37:54;1.60;;;1.10;;
79229;SDS011;68663;49.122;17.544;2023-08-08T01:40:26;1.30;;;1.20;;
79229;SDS011;68663;49.122;17.544;2023-08-08T01:42:54;1.10;;;1.00;;
79229;SDS011;68663;49.122;17.544;2023-08-08T01:45:20;1.42;;;1.23;;
79229;SDS011;68663;49.122;17.544;2023-08-08T01:47:50;1.02;;;1.00;;
79229;SDS011;68663;49.122;17.544;2023-08-08T01:50:16;1.33;;;1.00;;
79229;SDS011;68663;49.122;17.544;2023-08-08T01:52:41;0.80;;;0.80;;
79229;SDS011;68663;49.122;17.544;2023-08-08T01:55:06;0.88;;;0.85;;
79229;SDS011;68663;49.122;17.544;2023-08-08T01:57:32;0.90;;;0.90;;
79229;SDS011;68663;49.122;17.544;2023-08-08T01:59:58;1.00;;;0.90;;
79229;SDS011;68663;49.122;17.544;2023-08-08T02:02:23;1.50;;;0.85;;
79229;SDS011;68663;49.122;17.544;2023-08-08T02:04:49;1.65;;;1.00;;
79229;SDS011;68663;49.122;17.544;2023-08-08T02:07:14;1.33;;;1.20;;
79229;SDS011;68663;49.122;17.544;2023-08-08T02:09:40;0.95;;;0.80;;
79229;SDS011;68663;49.122;17.544;2023-08-08T02:12:06;1.10;;;1.00;;
79229;SDS011;68663;49.122;17.544;2023-08-08T02:14:32;1.35;;;1.00;;
79229;SDS011;68663;49.122;17.544;2023-08-08T02:16:57;1.23;;;0.82;;
79229;SDS011;68663;49.122;17.544;2023-08-08T02:19:23;1.48;;;1.00;;
79229;SDS011;68663;49.122;17.544;2023-08-08T02:21:48;1.45;;;1.05;;
79229;SDS011;68663;49.122;17.544;2023-08-08T02:24:13;1.13;;;1.00;;
79229;SDS011;68663;49.122;17.544;2023-08-08T02:26:39;0.95;;;0.85;;
79229;SDS011;68663;49.122;17.544;2023-08-08T02:29:04;1.00;;;0.90;;
79229;SDS011;68663;49.122;17.544;2023-08-08T02:31:30;2.05;;;0.90;;
79229;SDS011;68663;49.122;17.544;2023-08-08T02:33:55;1.20;;;0.95;;
79229;SDS011;68663;49.122;17.544;2023-08-08T02:36:21;1.40;;;1.05;;
79229;SDS011;68663;49.122;17.544;2023-08-08T02:38:46;1.42;;;1.27;;
79229;SDS011;68663;49.122;17.544;2023-08-08T02:41:12;1.65;;;1.00;;
79229;SDS011;68663;49.122;17.544;2023-08-08T02:43:37;1.13;;;1.00;;
79229;SDS011;68663;49.122;17.544;2023-08-08T02:46:03;1.42;;;0.90;;
79229;SDS011;68663;49.122;17.544;2023-08-08T02:48:29;0.90;;;0.80;;
79229;SDS011;68663;49.122;17.544;2023-08-08T02:50:55;1.30;;;0.88;;
79229;SDS011;68663;49.122;17.544;2023-08-08T02:53:21;1.27;;;0.93;;
79229;SDS011;68663;49.122;17.544;2023-08-08T02:55:46;1.42;;;0.90;;
79229;SDS011;68663;49.122;17.544;2023-08-08T02:58:12;1.25;;;0.90;;
79229;SDS011;68663;49.122;17.544;2023-08-08T03:00:38;1.08;;;0.90;;
79229;SDS011;68663;49.122;17.544;2023-08-08T03:03:03;1.42;;;0.90;;
79229;SDS011;68663;49.122;17.544;2023-08-08T03:05:29;1.42;;;1.05;;
79229;SDS011;68663;49.122;17.544;2023-08-08T03:07:54;1.27;;;1.05;;
79229;SDS011;68663;49.122;17.544;2023-08-08T03:10:20;0.95;;;0.88;;
79229;SDS011;68663;49.122;17.544;2023-08-08T03:12:45;1.63;;;1.10;;
79229;SDS011;68663;49.122;17.544;2023-08-08T03:15:11;0.70;;;0.70;;
79229;SDS011;68663;49.122;17.544;2023-08-08T03:17:36;1.02;;;0.85;;
79229;SDS011;68663;49.122;17.544;2023-08-08T03:20:02;1.90;;;1.13;;
79229;SDS011;68663;49.122;17.544;2023-08-08T03:22:30;2.60;;;1.10;;
79229;SDS011;68663;49.122;17.544;2023-08-08T03:24:56;5.20;;;1.20;;
79229;SDS011;68663;49.122;17.544;2023-08-08T03:27:22;8.52;;;1.42;;
79229;SDS011;68663;49.122;17.544;2023-08-08T03:29:47;14.75;;;1.88;;
79229;SDS011;68663;49.122;17.544;2023-08-08T03:32:13;5.28;;;1.30;;
79229;SDS011;68663;49.122;17.544;2023-08-08T03:34:38;5.05;;;1.20;;
79229;SDS011;68663;49.122;17.544;2023-08-08T03:37:03;5.15;;;1.27;;
79229;SDS011;68663;49.122;17.544;2023-08-08T03:39:29;6.03;;;1.08;;
79229;SDS011;68663;49.122;17.544;2023-08-08T03:41:54;1.70;;;1.10;;
79229;SDS011;68663;49.122;17.544;2023-08-08T03:44:20;1.85;;;1.02;;
79229;SDS011;68663;49.122;17.544;2023-08-08T03:46:45;1.83;;;1.40;;
79229;SDS011;68663;49.122;17.544;2023-08-08T03:49:10;3.42;;;0.90;;
79229;SDS011;68663;49.122;17.544;2023-08-08T03:51:36;1.70;;;1.13;;
79229;SDS011;68663;49.122;17.544;2023-08-08T03:54:01;1.60;;;0.82;;
79229;SDS011;68663;49.122;17.544;2023-08-08T03:56:27;2.53;;;1.13;;
79229;SDS011;68663;49.122;17.544;2023-08-08T03:58:53;4.20;;;1.10;;
79229;SDS011;68663;49.122;17.544;2023-08-08T04:01:19;3.55;;;1.00;;
79229;SDS011;68663;49.122;17.544;2023-08-08T04:03:44;3.15;;;1.05;;
79229;SDS011;68663;49.122;17.544;2023-08-08T04:06:09;1.30;;;0.93;;
79229;SDS011;68663;49.122;17.544;2023-08-08T04:08:35;1.92;;;1.20;;
79229;SDS011;68663;49.122;17.544;2023-08-08T04:11:00;2.15;;;1.00;;
79229;SDS011;68663;49.122;17.544;2023-08-08T04:13:26;2.97;;;1.50;;
79229;SDS011;68663;49.122;17.544;2023-08-08T04:15:51;5.55;;;1.23;;
79229;SDS011;68663;49.122;17.544;2023-08-08T04:18:17;1.38;;;1.15;;
79229;SDS011;68663;49.122;17.544;2023-08-08T04:20:45;2.88;;;1.17;;
79229;SDS011;68663;49.122;17.544;2023-08-08T04:23:12;2.08;;;1.08;;
79229;SDS011;68663;49.122;17.544;2023-08-08T04:25:37;1.25;;;1.10;;
79229;SDS011;68663;49.122;17.544;2023-08-08T04:28:03;0.68;;;0.68;;
79229;SDS011;68663;49.122;17.544;2023-08-08T04:30:28;2.78;;;1.10;;
79229;SDS011;68663;49.122;17.544;2023-08-08T04:32:54;1.45;;;1.20;;
79229;SDS011;68663;49.122;17.544;2023-08-08T04:35:19;1.38;;;0.90;;
79229;SDS011;68663;49.122;17.544;2023-08-08T04:37:45;1.45;;;1.10;;
79229;SDS011;68663;49.122;17.544;2023-08-08T04:40:10;1.48;;;1.00;;
79229;SDS011;68663;49.122;17.544;2023-08-08T04:42:36;1.33;;;1.10;;
79229;SDS011;68663;49.122;17.544;2023-08-08T04:45:02;1.50;;;1.23;;
79229;SDS011;68663;49.122;17.544;2023-08-08T04:47:27;1.65;;;1.15;;
79229;SDS011;68663;49.122;17.544;2023-08-08T04:49:53;1.95;;;0.98;;
79229;SDS011;68663;49.122;17.544;2023-08-08T04:52:18;1.13;;;1.05;;
79229;SDS011;68663;49.122;17.544;2023-08-08T04:54:44;1.58;;;1.00;;
79229;SDS011;68663;49.122;17.544;2023-08-08T04:57:09;1.40;;;1.02;;
79229;SDS011;68663;49.122;17.544;2023-08-08T04:59:35;0.80;;;0.80;;
79229;SDS011;68663;49.122;17.544;2023-08-08T05:02:00;1.33;;;1.17;;
79229;SDS011;68663;49.122;17.544;2023-08-08T05:04:26;1.60;;;0.80;;
79229;SDS011;68663;49.122;17.544;2023-08-08T05:06:51;1.38;;;1.00;;
79229;SDS011;68663;49.122;17.544;2023-08-08T05:09:16;1.03;;;0.90;;
79229;SDS011;68663;49.122;17.544;2023-08-08T05:11:42;1.52;;;1.20;;
79229;SDS011;68663;49.122;17.544;2023-08-08T05:14:07;1.50;;;1.13;;
79229;SDS011;68663;49.122;17.544;2023-08-08T05:16:32;2.33;;;1.25;;
79229;SDS011;68663;49.122;17.544;2023-08-08T05:18:58;2.28;;;1.48;;
79229;SDS011;68663;49.122;17.544;2023-08-08T05:21:23;1.65;;;1.00;;
79229;SDS011;68663;49.122;17.544;2023-08-08T05:23:49;1.55;;;0.90;;
79229;SDS011;68663;49.122;17.544;2023-08-08T05:26:15;1.15;;;1.00;;
79229;SDS011;68663;49.122;17.544;2023-08-08T05:28:41;1.58;;;0.85;;
79229;SDS011;68663;49.122;17.544;2023-08-08T05:31:06;2.15;;;1.30;;
79229;SDS011;68663;49.122;17.544;2023-08-08T05:33:32;1.80;;;1.10;;
79229;SDS011;68663;49.122;17.544;2023-08-08T05:35:58;1.67;;;0.80;;
79229;SDS011;68663;49.122;17.544;2023-08-08T05:38:23;1.00;;;0.90;;
79229;SDS011;68663;49.122;17.544;2023-08-08T05:40:48;1.55;;;1.10;;
79229;SDS011;68663;49.122;17.544;2023-08-08T05:43:14;1.17;;;0.90;;
79229;SDS011;68663;49.122;17.544;2023-08-08T05:45:43;1.10;;;1.00;;
79229;SDS011;68663;49.122;17.544;2023-08-08T05:48:09;1.30;;;1.00;;
79229;SDS011;68663;49.122;17.544;2023-08-08T05:50:37;1.58;;;1.00;;
79229;SDS011;68663;49.122;17.544;2023-08-08T05:53:03;1.50;;;1.08;;
79229;SDS011;68663;49.122;17.544;2023-08-08T05:55:29;4.15;;;1.02;;
79229;SDS011;68663;49.122;17.544;2023-08-08T05:57:54;6.40;;;1.30;;
79229;SDS011;68663;49.122;17.544;2023-08-08T06:00:20;3.13;;;1.48;;
79229;SDS011;68663;49.122;17.544;2023-08-08T06:02:46;2.75;;;1.17;;
79229;SDS011;68663;49.122;17.544;2023-08-08T06:05:11;5.80;;;1.52;;
79229;SDS011;68663;49.122;17.544;2023-08-08T06:07:37;2.97;;;1.30;;
79229;SDS011;68663;49.122;17.544;2023-08-08T06:10:03;2.00;;;1.20;;
79229;SDS011;68663;49.122;17.544;2023-08-08T06:12:29;6.15;;;1.55;;
79229;SDS011;68663;49.122;17.544;2023-08-08T06:14:55;3.35;;;1.50;;
79229;SDS011;68663;49.122;17.544;2023-08-08T06:17:20;6.90;;;1.70;;
79229;SDS011;68663;49.122;17.544;2023-08-08T06:19:45;5.45;;;1.90;;
79229;SDS011;68663;49.122;17.544;2023-08-08T06:22:11;6.40;;;1.60;;
79229;SDS011;68663;49.122;17.544;2023-08-08T06:24:37;9.27;;;1.70;;
79229;SDS011;68663;49.122;17.544;2023-08-08T06:27:04;2.28;;;1.35;;
79229;SDS011;68663;49.122;17.544;2023-08-08T06:29:29;4.10;;;1.70;;
79229;SDS011;68663;49.122;17.544;2023-08-08T06:31:55;3.38;;;1.83;;
79229;SDS011;68663;49.122;17.544;2023-08-08T06:34:21;5.75;;;2.25;;
79229;SDS011;68663;49.122;17.544;2023-08-08T06:36:46;2.60;;;1.70;;
79229;SDS011;68663;49.122;17.544;2023-08-08T06:39:12;5.97;;;1.92;;
79229;SDS011;68663;49.122;17.544;2023-08-08T06:41:37;3.22;;;1.90;;
79229;SDS011;68663;49.122;17.544;2023-08-08T06:44:04;4.65;;;2.13;;
79229;SDS011;68663;49.122;17.544;2023-08-08T06:46:29;4.43;;;1.70;;
79229;SDS011;68663;49.122;17.544;2023-08-08T06:48:55;4.40;;;1.67;;
79229;SDS011;68663;49.122;17.544;2023-08-08T06:51:26;8.60;;;3.33;;
79229;SDS011;68663;49.122;17.544;2023-08-08T06:56:17;19.70;;;5.43;;
79229;SDS011;68663;49.122;17.544;2023-08-08T06:58:43;19.10;;;5.32;;
79229;SDS011;68663;49.122;17.544;2023-08-08T07:01:09;17.60;;;5.25;;
79229;SDS011;68663;49.122;17.544;2023-08-08T07:03:35;14.40;;;5.38;;
79229;SDS011;68663;49.122;17.544;2023-08-08T07:06:01;14.70;;;4.88;;
79229;SDS011;68663;49.122;17.544;2023-08-08T07:08:27;12.98;;;4.03;;
79229;SDS011;68663;49.122;17.544;2023-08-08T07:10:54;10.75;;;3.72;;
79229;SDS011;68663;49.122;17.544;2023-08-08T07:13:21;9.45;;;3.65;;
79229;SDS011;68663;49.122;17.544;2023-08-08T07:15:47;11.63;;;4.05;;
79229;SDS011;68663;49.122;17.544;2023-08-08T07:18:12;14.25;;;4.40;;
79229;SDS011;68663;49.122;17.544;2023-08-08T07:20:38;14.50;;;4.28;;
79229;SDS011;68663;49.122;17.544;2023-08-08T07:23:04;14.65;;;4.35;;
79229;SDS011;68663;49.122;17.544;2023-08-08T07:25:29;7.68;;;3.45;;
79229;SDS011;68663;49.122;17.544;2023-08-08T07:27:55;9.88;;;3.70;;
79229;SDS011;68663;49.122;17.544;2023-08-08T07:30:21;11.50;;;3.60;;
79229;SDS011;68663;49.122;17.544;2023-08-08T07:32:46;11.80;;;3.58;;
79229;SDS011;68663;49.122;17.544;2023-08-08T07:35:12;11.25;;;3.42;;
79229;SDS011;68663;49.122;17.544;2023-08-08T07:37:37;7.88;;;3.80;;
79229;SDS011;68663;49.122;17.544;2023-08-08T07:40:12;12.95;;;3.80;;
79229;SDS011;68663;49.122;17.544;2023-08-08T07:42:39;8.25;;;3.55;;
79229;SDS011;68663;49.122;17.544;2023-08-08T07:45:04;8.25;;;3.55;;
79229;SDS011;68663;49.122;17.544;2023-08-08T07:47:30;7.78;;;3.20;;
79229;SDS011;68663;49.122;17.544;2023-08-08T07:49:56;8.43;;;3.08;;
79229;SDS011;68663;49.122;17.544;2023-08-08T07:52:22;6.82;;;3.20;;
79229;SDS011;68663;49.122;17.544;2023-08-08T07:54:48;8.32;;;3.00;;
79229;SDS011;68663;49.122;17.544;2023-08-08T07:57:14;9.43;;;3.70;;
79229;SDS011;68663;49.122;17.544;2023-08-08T07:59:39;12.63;;;3.95;;
79229;SDS011;68663;49.122;17.544;2023-08-08T08:02:05;8.45;;;3.55;;
79229;SDS011;68663;49.122;17.544;2023-08-08T08:04:30;10.00;;;3.70;;
79229;SDS011;68663;49.122;17.544;2023-08-08T08:06:56;9.20;;;3.42;;
79229;SDS011;68663;49.122;17.544;2023-08-08T08:09:22;8.43;;;3.25;;
79229;SDS011;68663;49.122;17.544;2023-08-08T08:11:47;6.93;;;3.80;;
79229;SDS011;68663;49.122;17.544;2023-08-08T08:14:12;8.15;;;3.55;;
79229;SDS011;68663;49.122;17.544;2023-08-08T08:16:38;8.23;;;3.28;;
79229;SDS011;68663;49.122;17.544;2023-08-08T08:19:04;7.03;;;2.85;;
79229;SDS011;68663;49.122;17.544;2023-08-08T08:21:29;6.90;;;3.40;;
79229;SDS011;68663;49.122;17.544;2023-08-08T08:23:55;7.38;;;3.08;;
79229;SDS011;68663;49.122;17.544;2023-08-08T08:26:20;8.18;;;3.35;;
79229;SDS011;68663;49.122;17.544;2023-08-08T08:28:45;6.68;;;2.97;;
79229;SDS011;68663;49.122;17.544;2023-08-08T08:31:11;8.23;;;3.35;;
79229;SDS011;68663;49.122;17.544;2023-08-08T08:33:36;8.70;;;2.88;;
79229;SDS011;68663;49.122;17.544;2023-08-08T08:36:02;6.40;;;3.30;;
79229;SDS011;68663;49.122;17.544;2023-08-08T08:38:27;10.95;;;3.17;;
79229;SDS011;68663;49.122;17.544;2023-08-08T08:40:54;6.15;;;3.13;;
79229;SDS011;68663;49.122;17.544;2023-08-08T08:43:21;8.00;;;3.35;;
79229;SDS011;68663;49.122;17.544;2023-08-08T08:45:49;7.35;;;2.97;;
79229;SDS011;68663;49.122;17.544;2023-08-08T08:48:16;7.65;;;3.10;;
79229;SDS011;68663;49.122;17.544;2023-08-08T08:50:44;6.75;;;3.15;;
79229;SDS011;68663;49.122;17.544;2023-08-08T08:53:12;7.07;;;2.50;;
79229;SDS011;68663;49.122;17.544;2023-08-08T08:55:38;7.65;;;2.90;;
79229;SDS011;68663;49.122;17.544;2023-08-08T08:58:05;6.50;;;3.00;;
79229;SDS011;68663;49.122;17.544;2023-08-08T09:00:30;5.57;;;2.75;;
79229;SDS011;68663;49.122;17.544;2023-08-08T09:02:56;6.45;;;2.97;;
79229;SDS011;68663;49.122;17.544;2023-08-08T09:05:23;7.45;;;2.78;;
79229;SDS011;68663;49.122;17.544;2023-08-08T09:07:50;7.13;;;2.78;;
79229;SDS011;68663;49.122;17.544;2023-08-08T09:10:16;4.75;;;3.08;;
79229;SDS011;68663;49.122;17.544;2023-08-08T09:12:43;7.00;;;2.60;;
79229;SDS011;68663;49.122;17.544;2023-08-08T09:15:09;5.97;;;2.45;;
79229;SDS011;68663;49.122;17.544;2023-08-08T09:17:35;7.38;;;3.17;;
79229;SDS011;68663;49.122;17.544;2023-08-08T09:20:01;5.22;;;2.80;;
79229;SDS011;68663;49.122;17.544;2023-08-08T09:22:27;5.20;;;2.70;;
79229;SDS011;68663;49.122;17.544;2023-08-08T09:24:54;5.90;;;2.90;;
79229;SDS011;68663;49.122;17.544;2023-08-08T09:27:20;4.68;;;3.00;;
79229;SDS011;68663;49.122;17.544;2023-08-08T09:29:46;5.45;;;2.72;;
79229;SDS011;68663;49.122;17.544;2023-08-08T09:32:11;5.50;;;2.58;;
79229;SDS011;68663;49.122;17.544;2023-08-08T09:34:40;6.47;;;2.97;;
79229;SDS011;68663;49.122;17.544;2023-08-08T09:37:07;5.70;;;2.90;;
79229;SDS011;68663;49.122;17.544;2023-08-08T09:39:33;5.15;;;2.85;;
79229;SDS011;68663;49.122;17.544;2023-08-08T09:41:58;5.05;;;2.78;;
79229;SDS011;68663;49.122;17.544;2023-08-08T09:44:26;6.30;;;2.72;;
79229;SDS011;68663;49.122;17.544;2023-08-08T09:46:54;5.32;;;2.80;;
79229;SDS011;68663;49.122;17.544;2023-08-08T09:49:20;5.72;;;2.97;;
79229;SDS011;68663;49.122;17.544;2023-08-08T09:51:46;4.90;;;2.80;;
79229;SDS011;68663;49.122;17.544;2023-08-08T09:54:13;6.22;;;3.38;;
79229;SDS011;68663;49.122;17.544;2023-08-08T09:56:39;3.63;;;2.22;;
79229;SDS011;68663;49.122;17.544;2023-08-08T09:59:04;4.95;;;2.40;;
79229;SDS011;68663;49.122;17.544;2023-08-08T10:01:31;5.32;;;2.67;;
79229;SDS011;68663;49.122;17.544;2023-08-08T10:03:57;4.97;;;2.75;;
79229;SDS011;68663;49.122;17.544;2023-08-08T10:06:23;6.38;;;2.80;;
79229;SDS011;68663;49.122;17.544;2023-08-08T10:08:48;4.82;;;2.67;;
79229;SDS011;68663;49.122;17.544;2023-08-08T10:11:15;4.45;;;2.25;;
79229;SDS011;68663;49.122;17.544;2023-08-08T10:13:47;4.43;;;2.35;;
79229;SDS011;68663;49.122;17.544;2023-08-08T10:16:15;4.88;;;2.33;;
79229;SDS011;68663;49.122;17.544;2023-08-08T10:18:41;5.60;;;2.28;;
79229;SDS011;68663;49.122;17.544;2023-08-08T10:21:07;6.43;;;3.10;;
79229;SDS011;68663;49.122;17.544;2023-08-08T10:23:38;7.47;;;3.08;;
79229;SDS011;68663;49.122;17.544;2023-08-08T10:26:04;4.85;;;2.55;;
79229;SDS011;68663;49.122;17.544;2023-08-08T10:28:34;5.03;;;2.83;;
79229;SDS011;68663;49.122;17.544;2023-08-08T10:33:28;19.20;;;3.95;;
79229;SDS011;68663;49.122;17.544;2023-08-08T10:38:48;8.30;;;3.58;;
79229;SDS011;68663;49.122;17.544;2023-08-08T10:41:18;10.18;;;3.67;;
79229;SDS011;68663;49.122;17.544;2023-08-08T10:46:31;10.93;;;4.03;;
79229;SDS011;68663;49.122;17.544;2023-08-08T10:48:58;8.25;;;3.63;;
79229;SDS011;68663;49.122;17.544;2023-08-08T10:51:33;10.27;;;3.53;;
79229;SDS011;68663;49.122;17.544;2023-08-08T10:54:12;12.77;;;5.25;;
79229;SDS011;68663;49.122;17.544;2023-08-08T10:56:47;10.48;;;5.40;;
79229;SDS011;68663;49.122;17.544;2023-08-08T10:59:21;11.68;;;4.78;;
79229;SDS011;68663;49.122;17.544;2023-08-08T11:01:48;12.38;;;5.18;;
79229;SDS011;68663;49.122;17.544;2023-08-08T11:04:17;10.13;;;4.45;;
79229;SDS011;68663;49.122;17.544;2023-08-08T11:06:44;8.85;;;3.90;;
79229;SDS011;68663;49.122;17.544;2023-08-08T11:09:12;8.00;;;3.63;;
79229;SDS011;68663;49.122;17.544;2023-08-08T11:11:39;8.35;;;3.40;;
79229;SDS011;68663;49.122;17.544;2023-08-08T11:14:23;5.13;;;3.65;;
79229;SDS011;68663;49.122;17.544;2023-08-08T11:16:49;6.35;;;2.95;;
79229;SDS011;68663;49.122;17.544;2023-08-08T11:19:16;6.70;;;3.38;;
79229;SDS011;68663;49.122;17.544;2023-08-08T11:21:44;5.95;;;2.78;;
79229;SDS011;68663;49.122;17.544;2023-08-08T11:24:11;6.20;;;3.00;;
79229;SDS011;68663;49.122;17.544;2023-08-08T11:26:38;10.43;;;4.20;;
79229;SDS011;68663;49.122;17.544;2023-08-08T11:29:05;4.75;;;3.42;;
79229;SDS011;68663;49.122;17.544;2023-08-08T11:31:35;6.30;;;3.15;;
79229;SDS011;68663;49.122;17.544;2023-08-08T11:34:01;7.22;;;3.40;;
79229;SDS011;68663;49.122;17.544;2023-08-08T11:36:30;11.00;;;4.00;;
79229;SDS011;68663;49.122;17.544;2023-08-08T11:38:57;8.55;;;4.30;;
79229;SDS011;68663;49.122;17.544;2023-08-08T11:41:24;8.63;;;2.60;;
79229;SDS011;68663;49.122;17.544;2023-08-08T11:43:51;4.18;;;2.70;;
79229;SDS011;68663;49.122;17.544;2023-08-08T11:46:18;4.43;;;2.88;;
79229;SDS011;68663;49.122;17.544;2023-08-08T11:48:47;4.20;;;2.30;;
79229;SDS011;68663;49.122;17.544;2023-08-08T11:51:14;5.22;;;2.85;;
79229;SDS011;68663;49.122;17.544;2023-08-08T11:53:50;4.35;;;2.45;;
79229;SDS011;68663;49.122;17.544;2023-08-08T11:56:17;3.45;;;2.53;;
79229;SDS011;68663;49.122;17.544;2023-08-08T11:58:44;8.38;;;3.72;;
79229;SDS011;68663;49.122;17.544;2023-08-08T12:01:10;7.90;;;3.85;;
79229;SDS011;68663;49.122;17.544;2023-08-08T12:03:39;3.90;;;2.55;;
79229;SDS011;68663;49.122;17.544;2023-08-08T12:06:11;6.00;;;2.63;;
79229;SDS011;68663;49.122;17.544;2023-08-08T12:08:40;4.05;;;2.30;;
79229;SDS011;68663;49.122;17.544;2023-08-08T12:11:10;4.15;;;2.60;;
79229;SDS011;68663;49.122;17.544;2023-08-08T12:13:37;6.05;;;2.63;;
79229;SDS011;68663;49.122;17.544;2023-08-08T12:16:05;4.40;;;2.35;;
79229;SDS011;68663;49.122;17.544;2023-08-08T12:18:31;10.23;;;3.33;;
79229;SDS011;68663;49.122;17.544;2023-08-08T12:20:57;17.38;;;3.00;;
79229;SDS011;68663;49.122;17.544;2023-08-08T12:23:23;5.10;;;2.50;;
79229;SDS011;68663;49.122;17.544;2023-08-08T12:25:51;3.95;;;2.33;;
79229;SDS011;68663;49.122;17.544;2023-08-08T12:28:17;18.17;;;2.40;;
79229;SDS011;68663;49.122;17.544;2023-08-08T12:30:42;4.25;;;2.45;;
79229;SDS011;68663;49.122;17.544;2023-08-08T12:33:08;4.55;;;2.40;;
79229;SDS011;68663;49.122;17.544;2023-08-08T12:35:33;10.20;;;2.65;;
79229;SDS011;68663;49.122;17.544;2023-08-08T12:37:59;5.43;;;2.30;;
79229;SDS011;68663;49.122;17.544;2023-08-08T12:40:24;3.78;;;2.42;;
79229;SDS011;68663;49.122;17.544;2023-08-08T12:42:50;2.58;;;1.92;;
79229;SDS011;68663;49.122;17.544;2023-08-08T12:45:16;3.80;;;2.13;;
79229;SDS011;68663;49.122;17.544;2023-08-08T12:47:43;3.58;;;2.15;;
79229;SDS011;68663;49.122;17.544;2023-08-08T12:50:08;3.38;;;2.85;;
79229;SDS011;68663;49.122;17.544;2023-08-08T12:52:34;4.78;;;3.03;;
79229;SDS011;68663;49.122;17.544;2023-08-08T12:55:01;5.28;;;2.95;;
79229;SDS011;68663;49.122;17.544;2023-08-08T12:57:27;5.43;;;3.28;;
79229;SDS011;68663;49.122;17.544;2023-08-08T12:59:52;6.13;;;3.20;;
79229;SDS011;68663;49.122;17.544;2023-08-08T13:02:18;5.55;;;2.55;;
79229;SDS011;68663;49.122;17.544;2023-08-08T13:04:45;3.08;;;2.28;;
79229;SDS011;68663;49.122;17.544;2023-08-08T13:07:10;3.65;;;2.30;;
79229;SDS011;68663;49.122;17.544;2023-08-08T13:09:36;5.85;;;2.65;;
79229;SDS011;68663;49.122;17.544;2023-08-08T13:12:02;6.38;;;3.13;;
79229;SDS011;68663;49.122;17.544;2023-08-08T13:14:28;14.73;;;4.95;;
79229;SDS011;68663;49.122;17.544;2023-08-08T13:16:53;7.68;;;3.00;;
79229;SDS011;68663;49.122;17.544;2023-08-08T13:19:19;8.70;;;2.80;;
79229;SDS011;68663;49.122;17.544;2023-08-08T13:21:46;4.57;;;2.10;;
79229;SDS011;68663;49.122;17.544;2023-08-08T13:24:12;2.78;;;2.03;;
79229;SDS011;68663;49.122;17.544;2023-08-08T13:26:38;4.53;;;2.10;;
79229;SDS011;68663;49.122;17.544;2023-08-08T13:29:04;3.65;;;1.95;;
79229;SDS011;68663;49.122;17.544;2023-08-08T13:31:29;2.83;;;1.95;;
79229;SDS011;68663;49.122;17.544;2023-08-08T13:33:55;4.53;;;2.22;;
79229;SDS011;68663;49.122;17.544;2023-08-08T13:36:20;2.63;;;1.87;;
79229;SDS011;68663;49.122;17.544;2023-08-08T13:38:45;2.17;;;1.70;;
79229;SDS011;68663;49.122;17.544;2023-08-08T13:41:11;4.25;;;2.25;;
79229;SDS011;68663;49.122;17.544;2023-08-08T13:43:36;4.22;;;2.00;;
79229;SDS011;68663;49.122;17.544;2023-08-08T13:46:02;2.58;;;1.60;;
79229;SDS011;68663;49.122;17.544;2023-08-08T13:48:32;3.63;;;1.67;;
79229;SDS011;68663;49.122;17.544;2023-08-08T13:50:58;3.75;;;1.92;;
79229;SDS011;68663;49.122;17.544;2023-08-08T13:53:23;4.68;;;1.73;;
79229;SDS011;68663;49.122;17.544;2023-08-08T13:55:49;3.08;;;1.67;;
79229;SDS011;68663;49.122;17.544;2023-08-08T13:58:14;3.05;;;1.92;;
79229;SDS011;68663;49.122;17.544;2023-08-08T14:00:40;3.15;;;2.00;;
79229;SDS011;68663;49.122;17.544;2023-08-08T14:03:06;2.60;;;1.80;;
79229;SDS011;68663;49.122;17.544;2023-08-08T14:05:31;2.55;;;1.70;;
79229;SDS011;68663;49.122;17.544;2023-08-08T14:07:57;2.47;;;1.83;;
79229;SDS011;68663;49.122;17.544;2023-08-08T14:10:22;2.40;;;1.65;;
79229;SDS011;68663;49.122;17.544;2023-08-08T14:12:47;1.98;;;1.63;;
79229;SDS011;68663;49.122;17.544;2023-08-08T14:15:13;2.85;;;1.90;;
79229;SDS011;68663;49.122;17.544;2023-08-08T14:17:38;4.22;;;2.03;;
79229;SDS011;68663;49.122;17.544;2023-08-08T14:20:04;4.30;;;2.03;;
79229;SDS011;68663;49.122;17.544;2023-08-08T14:22:30;6.05;;;2.00;;
79229;SDS011;68663;49.122;17.544;2023-08-08T14:24:56;3.00;;;1.70;;
79229;SDS011;68663;49.122;17.544;2023-08-08T14:27:21;3.27;;;1.83;;
79229;SDS011;68663;49.122;17.544;2023-08-08T14:29:48;4.65;;;2.05;;
79229;SDS011;68663;49.122;17.544;2023-08-08T14:32:13;2.75;;;1.83;;
79229;SDS011;68663;49.122;17.544;2023-08-08T14:34:39;5.17;;;1.80;;
79229;SDS011;68663;49.122;17.544;2023-08-08T14:37:04;4.85;;;2.00;;
79229;SDS011;68663;49.122;17.544;2023-08-08T14:39:30;5.20;;;1.83;;